Time;durP1;ratioP1;P1;durP2;ratioP2;P2;SDS_P1;SDS_P2;PMS_P1;PMS_P2;Temp;Humidity;BMP_temperature;BMP_pressure;BME280_temperature;BME280_humidity;BME280_pressure;Samples;Min_cycle;Max_cycle;Signal;HPM_P1;HPM_P2
2022/02/15 00:01:13;;;;;;;6.20;5.25;;;9.30;99.40;;;;;;5012373;28;20160;-56
2022/02/15 00:03:39;;;;;;;7.40;5.18;;;9.30;99.60;;;;;;4996746;28;20101;-58
2022/02/15 00:06:04;;;;;;;7.88;5.50;;;9.30;99.90;;;;;;4998414;28;20042;-57
2022/02/15 00:08:30;;;;;;;8.02;5.43;;;9.30;99.90;;;;;;5000293;28;20042;-58
2022/02/15 00:10:56;;;;;;;8.45;5.45;;;9.20;99.90;;;;;;5013511;28;20125;-57
2022/02/15 00:13:21;;;;;;;8.98;5.18;;;9.20;99.90;;;;;;5016809;28;20080;-57
2022/02/15 00:15:47;;;;;;;7.47;5.00;;;9.20;99.90;;;;;;4982275;28;20037;-56
2022/02/15 00:18:13;;;;;;;7.63;5.15;;;9.20;99.90;;;;;;5016046;28;20046;-57
2022/02/15 00:20:39;;;;;;;8.60;5.68;;;9.10;99.90;;;;;;5016069;28;20470;-54
2022/02/15 00:23:04;;;;;;;7.40;5.18;;;9.20;99.90;;;;;;5015485;28;20544;-57
2022/02/15 00:25:30;;;;;;;7.53;5.55;;;9.10;99.90;;;;;;5016124;28;20113;-55
2022/02/15 00:27:56;;;;;;;9.32;5.65;;;9.10;99.90;;;;;;5015300;28;20464;-54
2022/02/15 00:30:22;;;;;;;8.23;5.65;;;9.20;99.90;;;;;;5021012;28;20116;-57
2022/02/15 00:32:47;;;;;;;8.82;5.70;;;9.20;99.90;;;;;;5014729;28;20441;-55
2022/02/15 00:35:13;;;;;;;7.40;5.25;;;9.10;99.90;;;;;;5015516;28;20509;-56
2022/02/15 00:37:40;;;;;;;7.68;5.38;;;9.10;99.90;;;;;;5015832;28;20502;-55
2022/02/15 00:40:07;;;;;;;7.13;5.57;;;9.10;99.90;;;;;;5016280;28;20041;-57
2022/02/15 00:42:33;;;;;;;9.18;5.30;;;9.00;99.90;;;;;;5015166;28;20038;-57
2022/02/15 00:44:58;;;;;;;6.30;5.28;;;9.00;99.90;;;;;;5015544;28;20176;-53
2022/02/15 00:47:25;;;;;;;7.15;4.85;;;9.00;99.90;;;;;;5015037;28;20037;-57
2022/02/15 00:49:50;;;;;;;7.25;5.38;;;9.10;99.90;;;;;;5015974;28;20037;-56
2022/02/15 00:52:16;;;;;;;8.65;4.60;;;9.10;99.90;;;;;;5014429;28;20120;-57
2022/02/15 00:54:42;;;;;;;5.90;4.28;;;9.10;99.90;;;;;;5013212;28;20041;-56
2022/02/15 00:57:10;;;;;;;7.65;4.90;;;9.10;99.90;;;;;;5020170;28;20057;-55
2022/02/15 00:59:36;;;;;;;9.43;5.30;;;9.00;99.90;;;;;;5001378;28;20060;-54
2022/02/15 01:02:02;;;;;;;7.07;4.95;;;8.90;99.90;;;;;;5015862;28;21337;-54
2022/02/15 01:04:27;;;;;;;9.02;5.00;;;8.90;99.90;;;;;;5017391;28;20117;-58
2022/02/15 01:06:53;;;;;;;8.35;5.10;;;8.80;99.90;;;;;;4997729;28;20040;-53
2022/02/15 01:09:19;;;;;;;7.53;5.63;;;8.80;99.90;;;;;;5015506;28;20034;-55
2022/02/15 01:11:44;;;;;;;6.43;5.00;;;8.80;99.90;;;;;;5015219;28;20030;-54
2022/02/15 01:14:10;;;;;;;7.65;5.30;;;8.80;99.90;;;;;;5014082;28;20486;-56
2022/02/15 01:16:35;;;;;;;6.13;4.93;;;8.80;99.90;;;;;;5014880;28;20038;-55
2022/02/15 01:19:01;;;;;;;9.00;5.50;;;8.70;99.90;;;;;;5014943;28;20026;-50
2022/02/15 01:21:27;;;;;;;8.27;5.10;;;8.80;99.90;;;;;;5015360;28;20041;-52
2022/02/15 01:23:52;;;;;;;7.13;4.85;;;8.80;99.90;;;;;;5014899;28;20030;-52
2022/02/15 01:26:18;;;;;;;5.85;4.82;;;8.90;99.90;;;;;;5014974;28;20037;-54
2022/02/15 01:28:43;;;;;;;8.27;5.35;;;8.90;99.90;;;;;;5014844;28;20029;-50
2022/02/15 01:31:09;;;;;;;8.65;4.90;;;8.80;99.90;;;;;;5014365;28;20034;-53
2022/02/15 01:33:34;;;;;;;5.97;4.75;;;8.80;99.90;;;;;;5014653;28;20032;-55
2022/02/15 01:36:00;;;;;;;7.40;5.47;;;8.70;99.90;;;;;;5014647;28;20034;-54
2022/02/15 01:38:28;;;;;;;8.38;5.10;;;8.70;99.90;;;;;;4996729;28;20373;-56
2022/02/15 01:40:55;;;;;;;8.52;4.78;;;8.60;99.90;;;;;;5014303;28;20048;-52
2022/02/15 01:43:21;;;;;;;6.68;4.93;;;8.60;99.90;;;;;;5026517;28;20109;-55
2022/02/15 01:45:47;;;;;;;7.35;4.90;;;8.60;99.90;;;;;;4997182;28;20026;-50
2022/02/15 01:48:13;;;;;;;5.88;4.47;;;8.60;99.90;;;;;;5024535;28;20044;-53
2022/02/15 01:50:38;;;;;;;6.85;4.90;;;8.60;99.90;;;;;;5034458;28;20041;-54
2022/02/15 01:53:04;;;;;;;7.28;5.55;;;8.60;99.90;;;;;;5034369;28;20048;-54
2022/02/15 01:55:30;;;;;;;6.93;5.18;;;8.60;99.90;;;;;;5034115;28;20029;-53
2022/02/15 01:57:55;;;;;;;8.02;4.80;;;8.60;99.90;;;;;;5034317;28;20469;-55
2022/02/15 02:00:22;;;;;;;6.80;5.53;;;8.50;99.90;;;;;;5024633;28;20091;-53
2022/02/15 02:02:48;;;;;;;6.95;5.10;;;8.50;99.90;;;;;;5014065;28;20108;-55
2022/02/15 02:07:58;;;;;;;7.10;4.95;;;8.50;99.90;;;;;;5017460;28;20037;-54
2022/02/15 02:10:24;;;;;;;6.53;5.45;;;8.50;99.90;;;;;;5034394;28;20447;-54
2022/02/15 02:12:50;;;;;;;6.20;4.85;;;8.60;99.90;;;;;;5034400;28;20033;-54
2022/02/15 02:15:27;;;;;;;6.78;4.82;;;8.70;99.90;;;;;;5033500;28;20029;-50
2022/02/15 02:17:54;;;;;;;8.25;5.05;;;8.70;99.90;;;;;;5033605;28;20036;-51
2022/02/15 02:20:20;;;;;;;6.47;5.20;;;8.70;99.90;;;;;;5033599;28;20083;-52
2022/02/15 02:22:46;;;;;;;7.40;5.28;;;8.70;99.90;;;;;;5028216;28;20034;-53
2022/02/15 02:25:14;;;;;;;7.65;5.07;;;8.70;99.90;;;;;;4996640;28;20030;-53
2022/02/15 02:27:39;;;;;;;8.05;5.10;;;8.70;99.90;;;;;;5013680;28;20510;-56
2022/02/15 02:30:07;;;;;;;7.07;5.00;;;8.70;99.90;;;;;;5013823;28;20037;-52
2022/02/15 02:32:33;;;;;;;5.78;4.43;;;8.70;99.90;;;;;;5013827;28;20030;-52
2022/02/15 02:35:04;;;;;;;7.07;4.65;;;8.50;99.90;;;;;;5014107;28;20038;-53
2022/02/15 02:37:29;;;;;;;10.82;5.10;;;8.40;99.90;;;;;;5013327;28;20417;-52
2022/02/15 02:39:55;;;;;;;10.77;4.75;;;8.30;99.90;;;;;;5013044;28;20448;-52
2022/02/15 02:42:27;;;;;;;7.90;5.45;;;8.20;99.90;;;;;;5012604;28;20047;-54
2022/02/15 02:44:58;;;;;;;12.52;5.72;;;8.00;99.90;;;;;;4995820;28;20038;-53
2022/02/15 02:47:25;;;;;;;8.23;5.10;;;7.90;99.90;;;;;;5012378;28;20101;-55
2022/02/15 02:49:51;;;;;;;8.88;5.82;;;8.00;99.90;;;;;;5031183;28;20036;-51
2022/02/15 02:52:17;;;;;;;9.73;5.05;;;8.00;99.90;;;;;;5033309;28;20087;-55
2022/02/15 02:54:43;;;;;;;6.28;4.90;;;8.00;99.90;;;;;;5021228;28;20484;-53
2022/02/15 02:57:09;;;;;;;7.88;5.03;;;8.00;99.90;;;;;;5013102;28;20060;-56
2022/02/15 02:59:34;;;;;;;6.68;4.93;;;8.00;99.90;;;;;;5013010;28;20172;-50
2022/02/15 03:02:00;;;;;;;8.85;5.18;;;8.00;99.90;;;;;;5012651;28;20040;-52
2022/02/15 03:04:26;;;;;;;9.48;5.63;;;8.00;99.90;;;;;;4995757;28;20493;-54
2022/02/15 03:06:51;;;;;;;8.60;5.07;;;8.00;99.90;;;;;;5010478;28;20474;-53
2022/02/15 03:09:17;;;;;;;6.57;5.20;;;8.00;99.90;;;;;;4975731;28;20035;-55
2022/02/15 03:11:42;;;;;;;7.38;4.40;;;8.00;99.90;;;;;;5007152;28;20046;-51
2022/02/15 03:14:08;;;;;;;13.55;5.18;;;8.00;99.90;;;;;;5013739;28;20456;-51
2022/02/15 03:16:34;;;;;;;9.23;4.88;;;8.10;99.90;;;;;;5028804;28;20041;-54
2022/02/15 03:19:00;;;;;;;10.00;4.72;;;8.00;99.90;;;;;;5013236;28;20541;-56
2022/02/15 03:21:26;;;;;;;9.00;4.63;;;8.00;99.90;;;;;;5013290;28;20532;-53
2022/02/15 03:23:52;;;;;;;11.35;5.45;;;8.00;99.90;;;;;;5013108;28;20030;-56
2022/02/15 03:26:18;;;;;;;7.88;5.05;;;7.90;99.90;;;;;;4995366;28;20751;-56
2022/02/15 03:28:44;;;;;;;9.02;5.28;;;7.90;99.90;;;;;;5012951;28;20533;-50
2022/02/15 03:31:09;;;;;;;8.00;5.00;;;7.90;99.90;;;;;;5027765;28;20072;-56
2022/02/15 03:33:36;;;;;;;8.75;5.45;;;7.90;99.90;;;;;;5013055;28;20041;-55
2022/02/15 03:36:03;;;;;;;9.13;5.43;;;8.00;99.90;;;;;;5013174;28;20496;-54
2022/02/15 03:38:29;;;;;;;7.30;5.13;;;8.00;99.90;;;;;;5014785;28;20073;-54
2022/02/15 03:43:39;;;;;;;7.75;5.10;;;8.00;99.90;;;;;;4997056;28;20026;-54
2022/02/15 03:46:04;;;;;;;10.38;5.57;;;7.90;99.90;;;;;;5002076;28;20041;-52
2022/02/15 03:48:30;;;;;;;9.20;5.40;;;7.90;99.90;;;;;;5016240;28;20113;-54
2022/02/15 03:50:56;;;;;;;10.32;5.15;;;7.90;99.90;;;;;;5017023;28;20038;-51
2022/02/15 03:53:22;;;;;;;9.73;5.43;;;7.90;99.90;;;;;;5017244;28;20393;-54
2022/02/15 03:55:48;;;;;;;7.60;5.13;;;7.90;99.90;;;;;;5016170;28;20125;-49
2022/02/15 03:58:14;;;;;;;11.20;6.07;;;7.90;99.90;;;;;;5016802;28;20058;-50
2022/02/15 04:00:40;;;;;;;9.13;5.32;;;7.90;99.90;;;;;;5017272;28;20030;-51
2022/02/15 04:03:06;;;;;;;9.07;5.47;;;7.90;99.90;;;;;;5016444;28;20049;-53
2022/02/15 04:05:32;;;;;;;13.82;5.63;;;7.90;99.90;;;;;;5017077;28;20107;-51
2022/02/15 04:07:58;;;;;;;7.97;4.97;;;7.80;99.90;;;;;;5006113;28;20494;-55
2022/02/15 04:10:24;;;;;;;12.43;5.50;;;7.80;99.90;;;;;;5016497;28;20034;-49
2022/02/15 04:12:50;;;;;;;9.57;5.05;;;7.90;99.90;;;;;;5016255;28;20116;-56
2022/02/15 04:15:16;;;;;;;11.52;5.53;;;7.80;99.90;;;;;;5016249;28;20485;-53
2022/02/15 04:17:42;;;;;;;9.07;4.95;;;7.80;99.90;;;;;;5015773;28;20042;-54
2022/02/15 04:20:09;;;;;;;8.07;5.68;;;7.70;99.90;;;;;;5032661;28;20025;-51
2022/02/15 04:22:34;;;;;;;14.25;6.05;;;7.80;99.90;;;;;;5034730;28;20032;-52
2022/02/15 04:25:01;;;;;;;15.38;6.28;;;7.70;99.90;;;;;;5036023;28;20029;-53
2022/02/15 04:27:27;;;;;;;11.20;6.20;;;7.60;99.90;;;;;;5024800;28;20069;-54
2022/02/15 04:29:53;;;;;;;10.75;6.13;;;7.50;99.90;;;;;;4998280;28;20057;-53
2022/02/15 04:32:18;;;;;;;12.25;5.65;;;7.40;99.90;;;;;;5015222;28;20064;-54
2022/02/15 04:34:44;;;;;;;10.70;6.32;;;7.50;99.90;;;;;;5015067;28;20053;-52
2022/02/15 04:37:10;;;;;;;11.35;6.03;;;7.50;99.90;;;;;;4998510;28;20056;-51
2022/02/15 04:39:35;;;;;;;10.50;6.03;;;7.50;99.90;;;;;;5015602;28;20034;-53
2022/02/15 04:42:01;;;;;;;16.70;5.85;;;7.50;99.90;;;;;;5015127;28;20100;-54
2022/02/15 04:44:27;;;;;;;12.52;5.75;;;7.50;99.90;;;;;;5015143;28;20030;-50
2022/02/15 04:46:52;;;;;;;10.40;6.53;;;7.50;99.90;;;;;;5015642;28;20120;-54
2022/02/15 04:49:18;;;;;;;12.82;6.05;;;7.50;99.90;;;;;;5014966;28;20088;-54
2022/02/15 04:51:44;;;;;;;12.48;6.45;;;7.50;99.90;;;;;;5015698;28;20037;-52
2022/02/15 04:54:09;;;;;;;10.43;5.78;;;7.40;99.90;;;;;;5014982;28;20037;-55
2022/02/15 04:56:35;;;;;;;10.80;6.00;;;7.40;99.90;;;;;;5015576;28;20077;-55
2022/02/15 04:59:00;;;;;;;11.55;6.72;;;7.40;99.90;;;;;;5015236;28;20042;-58
2022/02/15 05:01:26;;;;;;;10.13;5.60;;;7.30;99.90;;;;;;5014949;28;20045;-58
2022/02/15 05:03:52;;;;;;;9.68;6.25;;;7.30;99.90;;;;;;5014899;28;20041;-55
2022/02/15 05:06:17;;;;;;;10.23;6.20;;;7.20;99.90;;;;;;5015282;28;20046;-55
2022/02/15 05:08:43;;;;;;;12.43;6.45;;;7.20;99.90;;;;;;5007731;28;20040;-57
2022/02/15 05:11:08;;;;;;;9.57;6.30;;;7.10;99.90;;;;;;5015008;28;20048;-55
2022/02/15 05:13:34;;;;;;;12.10;6.35;;;7.10;99.90;;;;;;4996996;28;20073;-54
2022/02/15 05:16:01;;;;;;;9.07;6.30;;;7.10;99.90;;;;;;5013831;28;20034;-55
2022/02/15 05:18:27;;;;;;;11.65;6.22;;;7.10;99.90;;;;;;5016845;28;20026;-54
2022/02/15 05:20:52;;;;;;;10.55;6.45;;;7.00;99.90;;;;;;4997854;28;20065;-53
2022/02/15 05:23:18;;;;;;;16.88;7.03;;;7.00;99.90;;;;;;4997181;28;20038;-53
2022/02/15 05:25:44;;;;;;;10.07;6.03;;;7.00;99.90;;;;;;5014419;28;20046;-54
2022/02/15 05:28:10;;;;;;;14.73;6.32;;;7.00;99.90;;;;;;5014453;28;20034;-53
2022/02/15 05:30:35;;;;;;;13.30;6.80;;;7.00;99.90;;;;;;5014975;28;20137;-56
2022/02/15 05:33:01;;;;;;;9.73;6.47;;;7.00;99.90;;;;;;5014157;28;20477;-51
2022/02/15 05:35:27;;;;;;;9.40;5.70;;;6.90;99.90;;;;;;5014296;28;20037;-52
2022/02/15 05:37:52;;;;;;;12.38;6.53;;;6.90;99.90;;;;;;5014308;28;20033;-55
2022/02/15 05:40:18;;;;;;;9.05;5.78;;;6.90;99.90;;;;;;5014233;28;20382;-55
2022/02/15 05:42:44;;;;;;;10.10;6.28;;;6.80;99.90;;;;;;5014595;28;20033;-54
2022/02/15 05:45:10;;;;;;;10.48;6.32;;;6.80;99.90;;;;;;4996834;28;20042;-57
2022/02/15 05:47:36;;;;;;;11.88;5.90;;;6.70;99.90;;;;;;5014333;28;20038;-55
2022/02/15 05:52:46;;;;;;;14.93;7.00;;;6.70;99.90;;;;;;5016516;28;20033;-54
2022/02/15 05:55:12;;;;;;;11.98;6.63;;;6.80;99.90;;;;;;5014047;28;20041;-53
2022/02/15 05:57:38;;;;;;;11.35;6.00;;;6.80;99.90;;;;;;5013731;28;20034;-53
2022/02/15 06:00:08;;;;;;;11.10;5.85;;;6.80;99.90;;;;;;5013656;28;20544;-56
2022/02/15 06:02:34;;;;;;;15.10;6.03;;;6.80;99.90;;;;;;4993154;28;20461;-56
2022/02/15 06:04:59;;;;;;;12.90;6.38;;;6.70;99.90;;;;;;4982857;28;20062;-52
2022/02/15 06:07:25;;;;;;;15.43;7.18;;;6.80;99.90;;;;;;4996720;28;20046;-54
2022/02/15 06:09:52;;;;;;;15.20;7.90;;;6.70;99.90;;;;;;5013678;28;20057;-57
2022/02/15 06:12:18;;;;;;;13.18;7.10;;;6.70;99.90;;;;;;5013477;28;20473;-50
2022/02/15 06:14:44;;;;;;;10.77;6.38;;;6.70;99.90;;;;;;5013154;28;20144;-56
2022/02/15 06:17:10;;;;;;;13.18;7.32;;;6.60;99.90;;;;;;5014004;28;20026;-54
2022/02/15 06:19:36;;;;;;;13.98;6.90;;;6.70;99.90;;;;;;5013320;28;20045;-53
2022/02/15 06:22:02;;;;;;;9.38;6.70;;;6.70;99.90;;;;;;5014077;28;20034;-57
2022/02/15 06:24:28;;;;;;;14.98;7.43;;;6.60;99.90;;;;;;4996424;28;20025;-55
2022/02/15 06:26:54;;;;;;;14.55;7.03;;;6.60;99.90;;;;;;5013721;28;20494;-55
2022/02/15 06:29:20;;;;;;;12.57;7.25;;;6.60;99.90;;;;;;5016081;28;20026;-56
2022/02/15 06:31:46;;;;;;;10.65;7.22;;;6.70;99.90;;;;;;5013787;28;20052;-52
2022/02/15 06:34:11;;;;;;;10.55;7.10;;;6.50;99.90;;;;;;5013391;28;20033;-52
2022/02/15 06:36:37;;;;;;;12.73;6.90;;;6.50;99.90;;;;;;5012873;28;20072;-52
2022/02/15 06:39:04;;;;;;;16.88;7.88;;;6.30;99.90;;;;;;5013076;28;20026;-53
2022/02/15 06:41:30;;;;;;;13.43;7.53;;;6.30;99.90;;;;;;5013169;28;20029;-52
2022/02/15 06:43:55;;;;;;;14.02;7.43;;;6.30;99.90;;;;;;5013073;28;20030;-53
2022/02/15 06:46:21;;;;;;;14.40;7.35;;;6.20;99.90;;;;;;5000202;28;20041;-54
2022/02/15 06:48:46;;;;;;;11.07;7.00;;;6.20;99.90;;;;;;5010224;28;20117;-53
2022/02/15 06:51:12;;;;;;;19.05;7.57;;;6.20;99.90;;;;;;5013310;28;20478;-54
2022/02/15 06:53:38;;;;;;;34.00;9.27;;;6.20;99.90;;;;;;5012819;28;20092;-55
2022/02/15 06:56:09;;;;;;;14.38;6.65;;;6.20;99.90;;;;;;5013210;28;20026;-57
2022/02/15 06:58:34;;;;;;;14.52;7.25;;;6.40;99.90;;;;;;5013873;28;20136;-54
2022/02/15 07:01:00;;;;;;;13.65;7.53;;;6.40;99.90;;;;;;5013954;28;20208;-58
2022/02/15 07:03:25;;;;;;;13.27;7.95;;;6.30;99.90;;;;;;5012987;28;20036;-56
2022/02/15 07:05:51;;;;;;;15.40;8.13;;;6.40;99.90;;;;;;5012072;28;20029;-55
2022/02/15 07:08:16;;;;;;;14.63;7.78;;;6.40;99.90;;;;;;5000481;28;20053;-57
2022/02/15 07:10:46;;;;;;;11.23;7.78;;;6.40;99.90;;;;;;5007944;28;20034;-56
2022/02/15 07:13:11;;;;;;;16.98;7.25;;;6.40;99.90;;;;;;5011781;28;20117;-56
2022/02/15 07:15:37;;;;;;;15.25;7.47;;;6.40;99.90;;;;;;5013727;28;20125;-54
2022/02/15 07:18:02;;;;;;;17.00;7.55;;;6.50;99.90;;;;;;5013016;28;20080;-59
2022/02/15 07:20:28;;;;;;;13.65;7.43;;;6.50;99.90;;;;;;5012925;28;20049;-53
2022/02/15 07:22:54;;;;;;;13.93;7.45;;;6.70;99.90;;;;;;5012771;28;20037;-54
2022/02/15 07:25:19;;;;;;;13.02;7.45;;;6.70;99.90;;;;;;5014885;28;20041;-56
2022/02/15 07:27:45;;;;;;;16.35;7.32;;;6.50;99.90;;;;;;5013670;28;20048;-52
2022/02/15 07:30:10;;;;;;;12.95;8.48;;;6.50;99.90;;;;;;5013523;28;20042;-51
2022/02/15 07:32:36;;;;;;;14.43;7.40;;;6.60;99.90;;;;;;5013045;28;20501;-54
2022/02/15 07:35:02;;;;;;;17.52;8.65;;;6.70;99.90;;;;;;5012657;28;20489;-58
2022/02/15 07:37:28;;;;;;;17.58;8.55;;;6.70;99.90;;;;;;4994929;28;20050;-54
2022/02/15 07:39:54;;;;;;;19.15;8.77;;;6.80;99.90;;;;;;5003437;28;20444;-53
2022/02/15 07:42:20;;;;;;;17.20;8.32;;;6.80;99.90;;;;;;5015105;28;20038;-54
2022/02/15 07:44:46;;;;;;;12.55;7.90;;;7.00;99.90;;;;;;5012914;28;20038;-52
2022/02/15 07:47:11;;;;;;;15.52;7.43;;;7.10;99.90;;;;;;5012353;28;20096;-51
2022/02/15 07:49:37;;;;;;;16.48;7.43;;;7.10;99.90;;;;;;4995155;28;20026;-48
2022/02/15 07:52:04;;;;;;;16.60;7.82;;;7.10;99.90;;;;;;5012557;28;20088;-52
2022/02/15 07:54:30;;;;;;;20.88;8.10;;;7.00;99.90;;;;;;5013589;28;20037;-54
2022/02/15 07:56:55;;;;;;;15.57;8.52;;;7.00;99.90;;;;;;4994038;28;20033;-53
2022/02/15 07:59:21;;;;;;;16.08;7.78;;;7.00;99.90;;;;;;5013117;28;20030;-54
2022/02/15 08:01:47;;;;;;;18.10;8.52;;;7.10;99.90;;;;;;5012174;28;20033;-56
2022/02/15 08:04:15;;;;;;;14.25;7.65;;;7.20;99.90;;;;;;5012326;28;20050;-56
2022/02/15 08:06:41;;;;;;;12.20;7.75;;;7.20;99.90;;;;;;5011483;28;20041;-56
2022/02/15 08:09:14;;;;;;;13.15;8.40;;;7.30;99.90;;;;;;5007169;28;20034;-56
2022/02/15 08:11:43;;;;;;;10.43;7.93;;;7.30;99.90;;;;;;5011179;28;20026;-58
2022/02/15 08:14:10;;;;;;;18.85;8.18;;;7.10;99.90;;;;;;5011882;28;20041;-56
2022/02/15 08:16:35;;;;;;;12.95;7.57;;;7.10;99.90;;;;;;5013888;28;20026;-53
2022/02/15 08:19:01;;;;;;;18.63;8.75;;;7.10;99.90;;;;;;5012955;28;20635;-55
2022/02/15 08:21:27;;;;;;;18.65;9.02;;;7.10;99.90;;;;;;5012531;28;20548;-50
2022/02/15 08:23:52;;;;;;;18.63;8.15;;;7.20;99.90;;;;;;5013591;28;20065;-54
2022/02/15 08:26:19;;;;;;;13.38;8.07;;;7.40;99.90;;;;;;5013593;28;20036;-55
2022/02/15 08:28:45;;;;;;;16.02;8.95;;;7.40;99.90;;;;;;5014218;28;20030;-55
2022/02/15 08:31:11;;;;;;;11.88;8.35;;;7.60;99.90;;;;;;5015608;28;20030;-55
2022/02/15 08:33:38;;;;;;;21.13;8.80;;;7.80;99.90;;;;;;5016291;28;20073;-53
2022/02/15 08:36:04;;;;;;;27.50;8.93;;;7.80;99.90;;;;;;5015794;28;20040;-56
2022/02/15 08:38:33;;;;;;;18.98;8.32;;;7.80;99.90;;;;;;5030487;28;20037;-55
2022/02/15 08:41:00;;;;;;;15.45;8.48;;;7.80;99.90;;;;;;5001359;28;20057;-56
2022/02/15 08:43:26;;;;;;;15.45;8.02;;;7.90;99.90;;;;;;5015986;28;20034;-53
2022/02/15 08:45:51;;;;;;;11.18;7.50;;;8.00;99.90;;;;;;5014998;28;20033;-55
2022/02/15 08:48:17;;;;;;;15.48;7.88;;;8.10;99.90;;;;;;5013084;28;20030;-53
2022/02/15 08:50:43;;;;;;;14.63;8.52;;;8.00;99.90;;;;;;5000133;28;20120;-52
2022/02/15 08:53:08;;;;;;;13.45;8.73;;;8.00;99.90;;;;;;5014881;28;20363;-52
2022/02/15 08:55:34;;;;;;;12.52;7.18;;;8.00;99.90;;;;;;5013872;28;20034;-51
2022/02/15 08:58:00;;;;;;;11.77;7.95;;;8.10;99.90;;;;;;4996670;28;20510;-52
2022/02/15 09:00:25;;;;;;;13.20;7.93;;;8.20;99.90;;;;;;5015204;28;20030;-54
2022/02/15 09:02:51;;;;;;;11.50;7.20;;;8.20;99.90;;;;;;4997901;28;20116;-53
2022/02/15 09:05:16;;;;;;;13.73;7.15;;;8.30;99.90;;;;;;5016166;28;20113;-54
2022/02/15 09:07:42;;;;;;;17.05;6.68;;;8.30;99.90;;;;;;5018475;28;20034;-59
2022/02/15 09:10:08;;;;;;;13.10;7.20;;;8.30;99.90;;;;;;5016002;28;20046;-55
2022/02/15 09:12:33;;;;;;;9.60;6.85;;;8.60;99.90;;;;;;5012629;28;20367;-57
2022/02/15 09:14:59;;;;;;;12.80;6.88;;;8.60;99.90;;;;;;5014365;28;20041;-56
2022/02/15 09:17:25;;;;;;;16.80;7.30;;;8.70;99.90;;;;;;5014101;28;20100;-59
2022/02/15 09:19:50;;;;;;;11.90;7.22;;;8.60;99.90;;;;;;5017422;28;20026;-58
2022/02/15 09:22:17;;;;;;;15.88;8.20;;;8.70;99.90;;;;;;5012404;28;20109;-60
2022/02/15 09:24:44;;;;;;;15.23;8.10;;;8.80;99.90;;;;;;5014718;28;20359;-58
2022/02/15 09:27:10;;;;;;;15.23;7.65;;;8.80;99.90;;;;;;5011196;28;20030;-60
2022/02/15 09:29:36;;;;;;;14.82;8.52;;;8.70;99.90;;;;;;5013136;28;20075;-60
2022/02/15 09:32:01;;;;;;;12.25;7.25;;;8.80;99.90;;;;;;5015055;28;21444;-59
2022/02/15 09:34:27;;;;;;;13.73;7.93;;;9.00;99.90;;;;;;5014472;28;20378;-61
2022/02/15 09:36:53;;;;;;;12.77;7.90;;;9.00;99.90;;;;;;5013934;28;20049;-59
2022/02/15 09:39:19;;;;;;;16.20;8.25;;;9.00;99.90;;;;;;4995423;28;20034;-58
2022/02/15 09:41:46;;;;;;;17.65;8.93;;;9.10;99.90;;;;;;5013144;28;20079;-58
2022/02/15 09:44:13;;;;;;;18.70;9.52;;;9.20;99.90;;;;;;5014194;28;20394;-58
2022/02/15 09:46:42;;;;;;;13.68;8.45;;;9.10;99.90;;;;;;5014275;28;20030;-58
2022/02/15 09:49:48;;;;;;;14.32;8.00;;;9.20;99.90;;;;;;5019318;28;20041;-59
2022/02/15 09:51:54;;;;;;;19.90;8.95;;;9.30;99.90;;;;;;5021738;28;20040;-59
2022/02/15 09:54:20;;;;;;;16.63;9.98;;;9.30;99.90;;;;;;5013297;28;20030;-59
2022/02/15 09:56:46;;;;;;;16.58;9.63;;;9.30;99.90;;;;;;5012933;28;20100;-60
2022/02/15 09:59:14;;;;;;;12.43;9.38;;;9.20;99.90;;;;;;5013946;28;20038;-60
2022/02/15 10:01:40;;;;;;;16.30;10.27;;;9.20;99.90;;;;;;4996587;28;20034;-59
2022/02/15 10:04:07;;;;;;;17.98;10.55;;;9.30;99.90;;;;;;5033482;28;20481;-62
2022/02/15 10:06:35;;;;;;;15.73;9.60;;;9.30;99.90;;;;;;5016354;28;20104;-61
2022/02/15 10:09:03;;;;;;;19.52;10.05;;;9.40;99.90;;;;;;5009352;28;20038;-58
2022/02/15 10:11:42;;;;;;;15.80;9.60;;;9.50;99.90;;;;;;5015837;28;20157;-61
2022/02/15 10:14:09;;;;;;;16.42;9.50;;;9.40;99.90;;;;;;5017810;28;20053;-60
2022/02/15 10:16:49;;;;;;;14.15;9.35;;;9.30;99.90;;;;;;5009626;28;20033;-60
2022/02/15 10:19:29;;;;;;;17.08;9.70;;;9.30;99.90;;;;;;5013804;28;20113;-58
2022/02/15 10:21:59;;;;;;;19.85;10.00;;;9.20;99.90;;;;;;5011433;28;20040;-60
2022/02/15 10:24:27;;;;;;;15.00;9.80;;;9.20;99.90;;;;;;4996096;28;20026;-60
2022/02/15 10:26:58;;;;;;;15.60;9.57;;;9.20;99.90;;;;;;5020478;28;20068;-60
2022/02/15 10:29:25;;;;;;;10.73;8.20;;;9.20;99.90;;;;;;5019316;28;20043;-60
2022/02/15 10:31:58;;;;;;;15.05;6.70;;;9.10;99.90;;;;;;5014086;28;20045;-59
2022/02/15 10:34:25;;;;;;;8.75;4.95;;;9.00;99.90;;;;;;5013456;28;20026;-60
2022/02/15 10:37:10;;;;;;;7.32;5.25;;;8.90;99.90;;;;;;5013135;28;20156;-61
2022/02/15 10:39:52;;;;;;;10.80;4.88;;;8.90;99.90;;;;;;5013235;28;20030;-61
2022/02/15 10:42:23;;;;;;;7.20;5.03;;;9.00;99.90;;;;;;4992303;28;20406;-53
2022/02/15 10:45:08;;;;;;;10.48;5.13;;;9.00;99.90;;;;;;4994133;28;20018;-55
2022/02/15 10:47:40;;;;;;;10.55;5.68;;;9.10;99.90;;;;;;5011466;28;20042;-56
2022/02/15 10:50:11;;;;;;;9.43;5.53;;;9.20;99.90;;;;;;5013656;28;20548;-57
2022/02/15 10:52:37;;;;;;;9.93;5.88;;;8.90;99.90;;;;;;4996009;28;20069;-52
2022/02/15 10:55:04;;;;;;;8.15;6.10;;;8.80;99.90;;;;;;5013743;28;20030;-55
2022/02/15 10:57:29;;;;;;;9.45;5.72;;;8.70;99.90;;;;;;5012982;28;20096;-56
2022/02/15 10:59:57;;;;;;;10.50;5.93;;;8.80;99.90;;;;;;5013340;28;20033;-55
2022/02/15 11:02:26;;;;;;;8.05;5.45;;;8.80;99.90;;;;;;4995871;28;20154;-56
2022/02/15 11:04:53;;;;;;;9.95;6.53;;;8.80;99.90;;;;;;4995751;28;20029;-55
2022/02/15 11:07:26;;;;;;;9.23;6.20;;;8.70;99.90;;;;;;4995430;28;20034;-51
2022/02/15 11:10:05;;;;;;;8.77;6.10;;;8.60;99.90;;;;;;5013447;28;20061;-56
2022/02/15 11:12:44;;;;;;;10.50;6.55;;;8.40;99.90;;;;;;5013222;28;20030;-54
2022/02/15 11:15:11;;;;;;;9.55;6.93;;;8.40;99.90;;;;;;5012620;28;20408;-56
2022/02/15 11:17:51;;;;;;;9.05;6.55;;;8.40;99.90;;;;;;5011170;28;20401;-57
2022/02/15 11:20:19;;;;;;;9.32;6.25;;;8.60;99.90;;;;;;5012972;28;20045;-57
2022/02/15 11:23:15;;;;;;;12.30;7.03;;;8.50;99.90;;;;;;5012930;28;20029;-62
2022/02/15 11:25:41;;;;;;;11.43;6.93;;;8.60;99.90;;;;;;5011687;28;20069;-58
2022/02/15 11:28:13;;;;;;;8.57;6.13;;;8.60;99.90;;;;;;5013598;28;20030;-56
2022/02/15 11:30:43;;;;;;;9.27;6.05;;;8.60;99.90;;;;;;5013160;28;20113;-55
2022/02/15 11:33:09;;;;;;;8.30;5.97;;;8.60;99.90;;;;;;5013458;28;20045;-56
2022/02/15 11:35:34;;;;;;;7.47;5.50;;;8.60;99.90;;;;;;5012783;28;20096;-56
2022/02/15 11:38:13;;;;;;;9.82;5.45;;;8.50;99.90;;;;;;5012882;28;20034;-55
2022/02/15 11:40:39;;;;;;;9.18;4.97;;;8.50;99.90;;;;;;5013210;28;20030;-56
2022/02/15 11:43:10;;;;;;;6.78;4.72;;;8.50;99.90;;;;;;5026674;28;20037;-53
2022/02/15 11:45:41;;;;;;;8.45;4.20;;;8.60;99.90;;;;;;5033515;28;20042;-54
2022/02/15 11:48:09;;;;;;;5.50;4.30;;;8.70;99.90;;;;;;5013476;28;20026;-54
2022/02/15 11:50:54;;;;;;;6.35;4.30;;;8.80;99.90;;;;;;4985222;28;20084;-52
2022/02/15 11:53:21;;;;;;;6.55;4.45;;;8.90;99.90;;;;;;4995790;28;20078;-54
2022/02/15 11:55:47;;;;;;;6.75;4.60;;;8.80;99.90;;;;;;5012837;28;20030;-55
2022/02/15 11:58:14;;;;;;;6.75;4.82;;;8.80;99.90;;;;;;5012827;28;20030;-53
2022/02/15 12:00:41;;;;;;;7.72;4.97;;;9.00;99.90;;;;;;5017683;28;20037;-56
2022/02/15 12:03:07;;;;;;;7.32;5.13;;;8.80;99.90;;;;;;5015694;28;20482;-55
2022/02/15 12:05:40;;;;;;;7.35;5.80;;;8.90;99.90;;;;;;5017022;28;20033;-56
2022/02/15 12:08:06;;;;;;;8.80;5.63;;;8.90;99.90;;;;;;5016462;28;20064;-55
2022/02/15 12:10:41;;;;;;;7.00;6.25;;;8.90;99.90;;;;;;5016442;28;20485;-54
2022/02/15 12:13:17;;;;;;;11.60;6.35;;;8.90;99.90;;;;;;5015021;28;20076;-53
2022/02/15 12:15:53;;;;;;;8.07;5.93;;;8.90;99.90;;;;;;5016219;28;20044;-56
2022/02/15 12:18:32;;;;;;;11.80;7.20;;;9.00;99.90;;;;;;5016013;28;20050;-57
2022/02/15 12:20:58;;;;;;;9.10;6.72;;;9.10;99.90;;;;;;5017376;28;20030;-56
2022/02/15 12:23:28;;;;;;;10.30;7.28;;;9.10;99.90;;;;;;5016487;28;20084;-56
2022/02/15 12:25:53;;;;;;;10.05;6.85;;;9.00;99.90;;;;;;5017474;28;20042;-59
2022/02/15 12:28:26;;;;;;;8.25;6.60;;;9.00;99.90;;;;;;5017758;28;20026;-59
2022/02/15 12:30:52;;;;;;;10.05;7.00;;;9.10;99.90;;;;;;5016596;28;20402;-55
2022/02/15 12:33:19;;;;;;;9.27;7.28;;;9.20;99.90;;;;;;4999330;28;20038;-57
2022/02/15 12:35:52;;;;;;;9.63;7.18;;;9.20;99.90;;;;;;5016745;28;20052;-55
2022/02/15 12:38:17;;;;;;;9.38;7.32;;;9.20;99.90;;;;;;5016861;28;20034;-56
2022/02/15 12:40:43;;;;;;;11.13;8.15;;;9.30;99.90;;;;;;5015897;28;20083;-55
2022/02/15 12:43:09;;;;;;;11.00;8.50;;;9.40;99.90;;;;;;5014237;28;20049;-60
2022/02/15 12:45:42;;;;;;;13.13;8.27;;;9.40;99.90;;;;;;4998239;28;20437;-55
2022/02/15 12:48:10;;;;;;;14.13;7.95;;;9.60;99.90;;;;;;5015172;28;20026;-57
2022/02/15 12:50:35;;;;;;;12.02;8.55;;;9.70;99.90;;;;;;5015931;28;20037;-53
2022/02/15 12:53:01;;;;;;;11.25;8.23;;;9.80;99.90;;;;;;5014571;28;20022;-59
2022/02/15 12:55:27;;;;;;;10.23;8.52;;;9.80;99.90;;;;;;5013835;28;20409;-56
2022/02/15 12:57:53;;;;;;;11.68;8.38;;;9.80;99.90;;;;;;5014783;28;20026;-55